Összefoglaló Pér: 

VentuSky:

Felhőkép magyaroszág: 

 

 

Keresés

Felhőkép 

Felhőkép

Széltérkép

Széltérkép

Győr-Pér Repülőtér

Élő webkamera kép

 Nagyobb kép

Győr-Pér Repülőtér

[Source: ADDS]
METAR
LHPR 261215Z 20014KT 150V230 CAVOK 26/11 Q1012 =
LHPR 261115Z 2612/2621 21014G28KT CAVOK PROB40 TEMPO 2616/2621 VRB22G36KT SHRA TSRA BKN045CB
TAF
LHPR 261115Z 2612/2621 21014G28KT CAVOK PROB40 TEMPO 2616/2621 VRB22G36KT SHRA TSRA BKN045CB =
SR / SS: 03:39 / 17:53 UTC (Napkelte / Napnyugta 2019-04-26)

Kapcsolat

Telephely:     9099 Pér, Repülõtér

Klubhelyiség: 9021 Gyõr, Városház tér 3.

E-mail: info@aeroclub-gyor.hu

Telefon: 06-20-777-9106

Adószám: 19113832-2-08

  
Joomla űrlapépítő by JoomlaShine
JSN Metro template designed by JoomlaShine.com